createdAt,value
2017-12-08T00:00:46.136Z,2.80
2017-12-08T00:03:14.336Z,2.60
2017-12-08T00:05:42.535Z,2.63
2017-12-08T00:08:10.742Z,2.77
2017-12-08T00:10:38.952Z,6.90
2017-12-08T00:13:06.384Z,2.43
2017-12-08T00:15:33.829Z,2.93
2017-12-08T00:18:01.952Z,2.40
2017-12-08T00:20:29.383Z,2.53
2017-12-08T00:22:56.812Z,2.50
2017-12-08T00:25:24.248Z,3.60
2017-12-08T00:27:51.685Z,2.40
2017-12-08T00:30:19.119Z,2.70
2017-12-08T00:32:46.547Z,2.47
2017-12-08T00:35:13.985Z,2.77
2017-12-08T00:37:41.426Z,3.50
2017-12-08T00:40:08.851Z,2.40
2017-12-08T00:42:36.283Z,2.87
2017-12-08T00:45:04.484Z,2.60
2017-12-08T00:47:32.688Z,2.70
2017-12-08T00:50:00.883Z,3.20
2017-12-08T00:52:29.083Z,3.00
2017-12-08T00:54:57.300Z,2.80
2017-12-08T00:57:25.483Z,2.70
2017-12-08T00:59:53.676Z,2.50
2017-12-08T01:02:21.878Z,3.33
2017-12-08T01:04:50.080Z,3.63
2017-12-08T01:07:17.514Z,2.70
2017-12-08T01:09:44.944Z,3.17
2017-12-08T01:12:13.159Z,3.30
2017-12-08T01:14:40.588Z,3.03
2017-12-08T01:17:08.027Z,3.53
2017-12-08T01:19:35.458Z,3.43
2017-12-08T01:22:02.896Z,3.40
2017-12-08T01:24:30.348Z,3.40
2017-12-08T01:26:57.784Z,3.30
2017-12-08T01:29:25.215Z,3.70
2017-12-08T01:31:52.655Z,3.93
2017-12-08T01:34:20.080Z,3.73
2017-12-08T01:36:47.512Z,4.33
2017-12-08T01:39:14.952Z,3.80
2017-12-08T01:41:42.385Z,3.93
2017-12-08T01:44:09.824Z,3.90
2017-12-08T01:46:37.247Z,3.73
2017-12-08T01:49:04.680Z,4.53
2017-12-08T01:51:32.120Z,4.20
2017-12-08T01:54:00.353Z,4.70
2017-12-08T01:56:27.785Z,5.03
2017-12-08T01:58:55.232Z,4.70
2017-12-08T02:01:22.665Z,4.80
2017-12-08T02:03:50.868Z,4.70
2017-12-08T02:06:19.064Z,4.83
2017-12-08T02:08:47.268Z,4.43
2017-12-08T02:11:15.472Z,5.37
2017-12-08T02:13:42.924Z,5.23
2017-12-08T02:16:10.347Z,5.40
2017-12-08T02:18:37.793Z,5.57
2017-12-08T02:21:05.984Z,5.20
2017-12-08T02:23:33.419Z,5.60
2017-12-08T02:26:00.856Z,5.03
2017-12-08T02:28:29.060Z,5.30
2017-12-08T02:30:57.251Z,5.53
2017-12-08T02:33:25.451Z,5.23
2017-12-08T02:35:53.656Z,5.73
2017-12-08T02:38:21.863Z,4.97
2017-12-08T02:40:49.291Z,4.93
2017-12-08T02:43:16.723Z,5.53
2017-12-08T02:45:44.155Z,5.13
2017-12-08T02:48:11.583Z,5.97
2017-12-08T02:50:39.019Z,4.23
2017-12-08T02:53:06.452Z,5.57
2017-12-08T02:55:33.888Z,4.27
2017-12-08T02:58:02.103Z,4.53
2017-12-08T03:00:30.916Z,4.77
2017-12-08T03:02:59.111Z,5.00
2017-12-08T03:05:26.544Z,4.70
2017-12-08T03:07:53.975Z,3.90
2017-12-08T03:10:22.185Z,4.50
2017-12-08T03:12:50.376Z,4.43
2017-12-08T03:15:18.580Z,4.37
2017-12-08T03:17:46.780Z,3.80
2017-12-08T03:20:14.979Z,4.30
2017-12-08T03:22:43.288Z,3.90
2017-12-08T03:25:10.724Z,4.20
2017-12-08T03:27:38.152Z,4.97
2017-12-08T03:30:05.588Z,5.07
2017-12-08T03:32:33.015Z,4.60
2017-12-08T03:35:01.067Z,4.70
2017-12-08T03:37:28.533Z,4.43
2017-12-08T03:39:56.730Z,4.40
2017-12-08T03:42:24.159Z,4.77
2017-12-08T03:44:51.583Z,4.50
2017-12-08T03:47:19.020Z,4.00
2017-12-08T03:49:47.213Z,4.03
2017-12-08T03:52:15.434Z,4.00
2017-12-08T03:54:42.855Z,4.83
2017-12-08T03:57:10.296Z,4.23
2017-12-08T03:59:37.735Z,4.40
2017-12-08T04:02:05.167Z,4.13
2017-12-08T04:04:32.592Z,5.07
2017-12-08T04:07:00.028Z,7.10
2017-12-08T04:09:27.455Z,8.70
2017-12-08T04:11:54.895Z,10.53
2017-12-08T04:14:22.328Z,4.77
2017-12-08T04:16:50.531Z,5.17
2017-12-08T04:19:18.721Z,4.30
2017-12-08T04:21:46.921Z,4.60
2017-12-08T04:24:15.141Z,4.40
2017-12-08T04:26:43.331Z,4.67
2017-12-08T04:29:11.533Z,4.77
2017-12-08T04:31:38.964Z,3.50
2017-12-08T04:34:06.391Z,4.63
2017-12-08T04:36:34.595Z,5.87
2017-12-08T04:39:02.023Z,5.60
2017-12-08T04:41:29.456Z,5.07
2017-12-08T04:43:56.961Z,5.13
2017-12-08T04:46:24.406Z,4.40
2017-12-08T04:48:52.600Z,5.07
2017-12-08T04:51:20.792Z,4.60
2017-12-08T04:53:49.001Z,5.30
2017-12-08T04:56:17.195Z,5.03
2017-12-08T04:58:45.409Z,4.87
2017-12-08T05:01:13.600Z,4.10
2017-12-08T05:03:41.043Z,4.20
2017-12-08T05:06:08.471Z,4.50
2017-12-08T05:08:35.907Z,4.60
2017-12-08T05:11:03.335Z,5.27
2017-12-08T05:13:30.836Z,4.87
2017-12-08T05:15:58.274Z,4.40
2017-12-08T05:18:26.471Z,3.80
2017-12-08T05:20:54.667Z,4.50
2017-12-08T05:23:22.162Z,4.20
2017-12-08T05:25:50.356Z,3.23
2017-12-08T05:28:18.563Z,4.57
2017-12-08T05:30:45.999Z,4.40
2017-12-08T05:33:13.432Z,3.30
2017-12-08T05:35:40.860Z,4.60
2017-12-08T05:38:08.295Z,4.17
2017-12-08T05:40:35.737Z,4.10
2017-12-08T05:43:03.172Z,4.00
2017-12-08T05:45:31.152Z,4.60
2017-12-08T05:47:58.587Z,4.47
2017-12-08T05:50:26.016Z,4.00
2017-12-08T05:52:53.488Z,3.93
2017-12-08T05:55:20.934Z,3.87
2017-12-08T05:57:48.364Z,3.90
2017-12-08T06:00:15.808Z,3.83
2017-12-08T06:02:43.223Z,3.87
2017-12-08T06:05:10.660Z,3.70
2017-12-08T06:07:38.087Z,3.13
2017-12-08T06:10:06.462Z,3.13
2017-12-08T06:12:34.651Z,3.37
2017-12-08T06:15:02.856Z,3.03
2017-12-08T06:17:32.064Z,3.30
2017-12-08T06:20:00.807Z,3.17
2017-12-08T06:22:28.240Z,3.40
2017-12-08T06:24:55.744Z,3.40
2017-12-08T06:27:23.193Z,2.63
2017-12-08T06:29:50.624Z,3.10
2017-12-08T06:32:18.052Z,2.23
2017-12-08T06:34:46.304Z,3.43
2017-12-08T06:37:13.741Z,2.30
2017-12-08T06:39:41.183Z,2.50
2017-12-08T06:42:08.616Z,2.67
2017-12-08T06:44:36.052Z,2.93
2017-12-08T06:47:03.480Z,2.90
2017-12-08T06:49:32.592Z,2.90
2017-12-08T06:52:00.102Z,2.80
2017-12-08T06:54:28.295Z,2.67
2017-12-08T06:56:56.491Z,2.03
2017-12-08T06:59:24.687Z,2.70
2017-12-08T07:01:52.885Z,2.97
2017-12-08T07:04:21.080Z,2.53
2017-12-08T07:06:49.280Z,2.47
2017-12-08T07:09:17.481Z,2.43
2017-12-08T07:11:45.680Z,2.60
2017-12-08T07:14:13.875Z,2.57
2017-12-08T07:16:42.075Z,2.37
2017-12-08T07:19:10.272Z,2.17
2017-12-08T07:21:38.476Z,2.50
2017-12-08T07:24:06.671Z,2.20
2017-12-08T07:26:34.879Z,1.90
2017-12-08T07:29:02.308Z,2.53
2017-12-08T07:31:30.092Z,2.33
2017-12-08T07:33:57.507Z,2.70
2017-12-08T07:36:24.940Z,2.30
2017-12-08T07:38:52.367Z,2.80
2017-12-08T07:41:20.573Z,1.70
2017-12-08T07:43:48.763Z,1.90
2017-12-08T07:46:16.972Z,2.10
2017-12-08T07:48:45.169Z,1.87
2017-12-08T07:51:13.367Z,1.60
2017-12-08T07:53:41.572Z,1.97
2017-12-08T07:56:09.785Z,1.97
2017-12-08T07:58:37.208Z,1.60
2017-12-08T08:01:04.664Z,2.43
2017-12-08T08:03:32.099Z,2.90
2017-12-08T08:06:00.928Z,2.07
2017-12-08T08:08:28.371Z,3.30
2017-12-08T08:10:55.808Z,7.33
2017-12-08T08:13:23.243Z,4.60
2017-12-08T08:15:50.667Z,6.83
2017-12-08T08:18:18.102Z,2.93
2017-12-08T08:20:45.531Z,2.87
2017-12-08T08:23:12.967Z,2.30
2017-12-08T08:25:40.400Z,3.50
2017-12-08T08:28:07.831Z,2.30
2017-12-08T08:30:35.264Z,2.80
2017-12-08T08:33:02.695Z,3.00
2017-12-08T08:35:30.892Z,3.80
2017-12-08T08:37:59.095Z,2.90
2017-12-08T08:40:27.292Z,2.83
2017-12-08T08:42:55.509Z,3.50
2017-12-08T08:45:23.703Z,2.90
2017-12-08T08:47:51.904Z,2.80
2017-12-08T08:50:19.332Z,2.80
2017-12-08T08:52:46.768Z,3.10
2017-12-08T08:55:14.196Z,2.77
2017-12-08T08:57:41.631Z,3.40
2017-12-08T09:00:09.076Z,2.30
2017-12-08T09:02:36.518Z,2.90
2017-12-08T09:05:03.942Z,3.53
2017-12-08T09:07:31.839Z,2.70
2017-12-08T09:10:00.043Z,3.27
2017-12-08T09:12:28.247Z,2.93
2017-12-08T09:14:56.444Z,3.20
2017-12-08T09:17:24.646Z,2.40
2017-12-08T09:19:52.847Z,5.90
2017-12-08T09:22:21.044Z,3.80
2017-12-08T09:24:49.248Z,4.70
2017-12-08T09:27:16.679Z,3.17
2017-12-08T09:29:44.116Z,3.10
2017-12-08T09:32:11.553Z,4.03
2017-12-08T09:34:38.991Z,2.80
2017-12-08T09:37:06.411Z,3.10
2017-12-08T09:39:33.851Z,3.90
2017-12-08T09:42:01.947Z,3.00
2017-12-08T09:44:29.383Z,2.47
2017-12-08T09:46:57.577Z,2.50
2017-12-08T09:49:25.020Z,3.83
2017-12-08T09:51:52.451Z,3.00
2017-12-08T09:54:20.663Z,2.50
2017-12-08T09:56:48.092Z,3.30
2017-12-08T09:59:15.572Z,2.33
2017-12-08T10:01:42.959Z,2.40
2017-12-08T10:04:10.393Z,2.33
2017-12-08T10:06:37.824Z,2.60
2017-12-08T10:09:05.254Z,2.03
2017-12-08T10:11:32.691Z,3.30
2017-12-08T10:14:00.636Z,2.33
2017-12-08T10:16:28.076Z,3.07
2017-12-08T10:18:55.499Z,2.43
2017-12-08T10:21:22.936Z,2.97
2017-12-08T10:23:50.363Z,3.10
2017-12-08T10:26:17.797Z,2.80
2017-12-08T10:28:45.230Z,2.63
2017-12-08T10:31:12.665Z,5.90
2017-12-08T10:33:40.863Z,3.20
2017-12-08T10:36:09.064Z,5.77
2017-12-08T10:38:37.260Z,4.10
2017-12-08T10:41:05.468Z,3.13
2017-12-08T10:43:33.660Z,2.90
2017-12-08T10:46:02.600Z,3.23
2017-12-08T10:48:30.028Z,2.80
2017-12-08T10:50:57.463Z,3.40
2017-12-08T10:53:24.896Z,3.20
2017-12-08T10:55:52.332Z,3.80
2017-12-08T10:58:19.763Z,3.50
2017-12-08T11:00:47.210Z,3.53
2017-12-08T11:03:15.400Z,3.87
2017-12-08T11:05:42.830Z,4.70
2017-12-08T11:08:11.027Z,3.20
2017-12-08T11:10:39.228Z,4.40
2017-12-08T11:13:07.436Z,3.70
2017-12-08T11:15:35.632Z,2.83
2017-12-08T11:18:03.839Z,3.80
2017-12-08T11:20:31.960Z,5.23
2017-12-08T11:22:59.400Z,4.43
2017-12-08T11:25:27.595Z,5.10
2017-12-08T11:27:55.800Z,4.53
2017-12-08T11:30:24.008Z,5.33
2017-12-08T11:32:52.224Z,4.17
2017-12-08T11:35:19.664Z,4.10
2017-12-08T11:37:47.103Z,5.47
2017-12-08T11:40:14.531Z,3.77
2017-12-08T11:42:42.747Z,4.43
2017-12-08T11:45:10.948Z,5.90
2017-12-08T11:47:39.156Z,4.23
2017-12-08T11:50:06.588Z,7.60
2017-12-08T11:52:34.024Z,5.07
2017-12-08T11:55:01.716Z,4.33
2017-12-08T11:57:29.151Z,3.27
2017-12-08T11:59:56.579Z,3.40
2017-12-08T12:02:24.016Z,3.93
2017-12-08T12:04:52.207Z,3.17
2017-12-08T12:07:19.640Z,4.43
2017-12-08T12:09:47.072Z,5.03
2017-12-08T12:12:14.524Z,4.93
2017-12-08T12:14:41.956Z,5.93
2017-12-08T12:17:10.148Z,4.87
2017-12-08T12:19:38.351Z,4.50
2017-12-08T12:22:06.548Z,4.70
2017-12-08T12:24:34.748Z,3.73
2017-12-08T12:27:02.947Z,4.37
2017-12-08T12:29:30.395Z,4.10
2017-12-08T12:31:57.824Z,3.73
2017-12-08T12:34:25.259Z,3.10
2017-12-08T12:36:52.688Z,3.30
2017-12-08T12:39:20.123Z,3.53
2017-12-08T12:41:47.551Z,3.63
2017-12-08T12:44:14.987Z,3.33
2017-12-08T12:46:42.418Z,3.63
2017-12-08T12:49:09.870Z,5.05
2017-12-08T12:51:38.068Z,5.05
2017-12-08T12:54:05.512Z,5.25
2017-12-08T12:56:32.948Z,4.43
2017-12-08T12:59:00.395Z,5.07
2017-12-08T13:01:28.600Z,4.65
2017-12-08T13:03:56.808Z,5.20
2017-12-08T13:06:24.239Z,5.17
2017-12-08T13:08:51.688Z,5.62
2017-12-08T13:11:19.169Z,4.95
2017-12-08T13:13:46.555Z,5.50
2017-12-08T13:16:14.000Z,6.00
2017-12-08T13:18:42.196Z,5.82
2017-12-08T13:21:10.404Z,5.75
2017-12-08T13:23:38.604Z,6.53
2017-12-08T13:26:06.807Z,5.93
2017-12-08T13:28:34.244Z,5.60
2017-12-08T13:31:02.520Z,4.95
2017-12-08T13:33:29.955Z,4.70
2017-12-08T13:35:58.159Z,4.60
2017-12-08T13:38:25.598Z,4.10
2017-12-08T13:40:53.035Z,4.12
2017-12-08T13:43:20.463Z,3.45
2017-12-08T13:45:47.899Z,3.90
2017-12-08T13:48:15.349Z,4.00
2017-12-08T13:50:42.780Z,5.30
2017-12-08T13:53:22.161Z,4.68
2017-12-08T13:56:01.593Z,4.45
2017-12-08T13:58:29.016Z,4.57
2017-12-08T14:00:56.465Z,4.20
2017-12-08T14:03:23.900Z,3.90
2017-12-08T14:05:52.121Z,5.40
2017-12-08T14:08:19.544Z,4.20
2017-12-08T14:10:47.747Z,3.65
2017-12-08T14:13:15.175Z,4.00
2017-12-08T14:15:42.640Z,3.80
2017-12-08T14:18:10.840Z,3.30
2017-12-08T14:20:39.051Z,3.70
2017-12-08T14:23:06.491Z,3.90
2017-12-08T14:25:33.962Z,5.07
2017-12-08T14:28:01.932Z,4.40
2017-12-08T14:30:29.379Z,3.58
2017-12-08T14:32:57.579Z,3.62
2017-12-08T14:35:25.019Z,1.77
2017-12-08T14:37:52.467Z,1.20
2017-12-08T14:40:19.899Z,1.00
2017-12-08T14:42:47.336Z,1.00
2017-12-08T14:45:14.781Z,1.00
2017-12-08T14:47:42.992Z,1.23
2017-12-08T14:50:10.427Z,2.90
2017-12-08T14:52:37.880Z,2.40
2017-12-08T14:55:05.313Z,4.50
2017-12-08T14:57:33.516Z,3.30
2017-12-08T15:00:02.458Z,3.00
2017-12-08T15:02:30.239Z,3.37
2017-12-08T15:04:57.666Z,3.70
2017-12-08T15:07:25.101Z,2.30
2017-12-08T15:09:52.537Z,2.00
2017-12-08T15:12:19.984Z,2.70
2017-12-08T15:14:47.428Z,2.30
2017-12-08T15:17:15.639Z,3.42
2017-12-08T15:19:43.075Z,1.95
2017-12-08T15:22:10.534Z,5.15
2017-12-08T15:24:37.963Z,7.97
2017-12-08T15:27:05.416Z,2.00
2017-12-08T15:29:32.859Z,1.62
2017-12-08T15:32:00.291Z,1.10
2017-12-08T15:34:28.495Z,0.77
2017-12-08T15:36:56.695Z,0.80
2017-12-08T15:39:24.898Z,1.10
2017-12-08T15:41:53.092Z,1.10
2017-12-08T15:44:21.294Z,0.80
2017-12-08T15:46:49.487Z,1.23
2017-12-08T15:49:17.696Z,1.10
2017-12-08T15:51:45.895Z,1.10
2017-12-08T15:54:14.096Z,1.10
2017-12-08T15:56:43.126Z,1.50
2017-12-08T15:59:10.559Z,1.30
2017-12-08T16:01:37.987Z,1.07
2017-12-08T16:04:05.435Z,1.50
2017-12-08T16:06:32.871Z,1.60
2017-12-08T16:09:00.307Z,2.57
2017-12-08T16:11:28.500Z,1.43
2017-12-08T16:13:55.931Z,1.37
2017-12-08T16:16:23.359Z,1.50
2017-12-08T16:18:51.568Z,2.03
2017-12-08T16:21:19.764Z,3.10
2017-12-08T16:23:48.031Z,6.27
2017-12-08T16:26:15.412Z,4.50
2017-12-08T16:28:43.636Z,2.40
2017-12-08T16:31:12.350Z,2.23
2017-12-08T16:33:40.548Z,3.10
2017-12-08T16:36:08.755Z,3.40
2017-12-08T16:38:36.953Z,4.10
2017-12-08T16:41:05.155Z,4.70
2017-12-08T16:43:32.592Z,9.50
2017-12-08T16:46:00.036Z,10.73
2017-12-08T16:48:27.464Z,7.53
2017-12-08T16:50:54.900Z,8.57
2017-12-08T16:53:22.332Z,6.43
2017-12-08T16:55:49.769Z,6.97
2017-12-08T16:58:17.196Z,3.90
2017-12-08T17:00:44.636Z,3.80
2017-12-08T17:03:12.527Z,8.60
2017-12-08T17:05:39.979Z,8.63
2017-12-08T17:08:07.407Z,5.00
2017-12-08T17:10:34.852Z,3.43
2017-12-08T17:13:02.288Z,7.37
2017-12-08T17:15:30.499Z,7.07
2017-12-08T17:17:58.696Z,6.70
2017-12-08T17:20:26.899Z,3.57
2017-12-08T17:22:55.103Z,4.50
2017-12-08T17:25:23.299Z,3.53
2017-12-08T17:27:50.731Z,3.90
2017-12-08T17:30:18.932Z,2.70
2017-12-08T17:32:46.411Z,2.93
2017-12-08T17:35:13.868Z,2.10
2017-12-08T17:37:41.300Z,2.03
2017-12-08T17:40:09.496Z,1.90
2017-12-08T17:42:36.940Z,1.50
2017-12-08T17:45:04.368Z,1.40
2017-12-08T17:47:32.568Z,1.40
2017-12-08T17:50:00.764Z,2.10
2017-12-08T17:52:28.968Z,2.80
2017-12-08T17:54:57.168Z,1.83
2017-12-08T17:57:25.368Z,2.63
2017-12-08T17:59:53.561Z,2.83
2017-12-08T18:02:21.784Z,3.50
2017-12-08T18:04:49.211Z,1.80
2017-12-08T18:07:16.644Z,2.20
2017-12-08T18:09:44.074Z,2.70
2017-12-08T18:12:11.780Z,2.80
2017-12-08T18:14:39.983Z,2.80
2017-12-08T18:17:08.191Z,3.10
2017-12-08T18:19:35.630Z,3.13
2017-12-08T18:22:03.070Z,4.40
2017-12-08T18:24:30.503Z,7.10
2017-12-08T18:26:57.958Z,10.00
2017-12-08T18:29:25.405Z,9.10
2017-12-08T18:31:52.844Z,14.43
2017-12-08T18:34:20.275Z,13.87
2017-12-08T18:36:47.752Z,18.40
2017-12-08T18:39:15.928Z,22.60
2017-12-08T18:41:43.360Z,16.13
2017-12-08T18:44:10.808Z,8.67
2017-12-08T18:46:38.240Z,8.07
2017-12-08T18:49:05.700Z,7.50
2017-12-08T18:51:33.141Z,6.23
2017-12-08T18:54:00.571Z,5.87
2017-12-08T18:56:27.999Z,6.10
2017-12-08T18:58:55.440Z,4.97
2017-12-08T19:01:22.885Z,11.77
2017-12-08T19:03:50.328Z,6.87
2017-12-08T19:06:18.524Z,4.00
2017-12-08T19:08:46.731Z,4.53
2017-12-08T19:11:14.166Z,4.87
2017-12-08T19:13:41.832Z,6.27
2017-12-08T19:16:09.248Z,6.40
2017-12-08T19:18:36.693Z,6.00
2017-12-08T19:21:04.121Z,7.70
2017-12-08T19:23:32.328Z,5.40
2017-12-08T19:25:59.767Z,6.57
2017-12-08T19:28:27.199Z,9.63
2017-12-08T19:30:54.632Z,5.50
2017-12-08T19:33:22.083Z,10.20
2017-12-08T19:35:49.512Z,13.70
2017-12-08T19:38:17.756Z,13.60
2017-12-08T19:40:45.196Z,18.00
2017-12-08T19:43:14.203Z,8.53
2017-12-08T19:45:41.877Z,5.53
2017-12-08T19:48:09.349Z,3.80
2017-12-08T19:50:36.768Z,4.00
2017-12-08T19:53:04.977Z,3.43
2017-12-08T19:55:33.234Z,3.23
2017-12-08T19:58:00.651Z,3.47
2017-12-08T20:00:28.852Z,3.00
2017-12-08T20:02:56.284Z,2.40
2017-12-08T20:05:23.722Z,2.90
2017-12-08T20:07:51.152Z,2.70
2017-12-08T20:10:18.595Z,5.07
2017-12-08T20:12:46.019Z,4.30
2017-12-08T20:15:14.275Z,7.77
2017-12-08T20:17:41.712Z,9.30
2017-12-08T20:20:09.903Z,4.20
2017-12-08T20:22:37.352Z,5.40
2017-12-08T20:25:04.787Z,5.10
2017-12-08T20:27:32.232Z,5.93
2017-12-08T20:29:59.710Z,4.40
2017-12-08T20:32:27.182Z,7.00
2017-12-08T20:34:54.609Z,15.77
2017-12-08T20:47:11.625Z,4.10
2017-12-08T20:49:39.068Z,3.60
2017-12-08T20:52:07.272Z,3.00
2017-12-08T20:54:35.509Z,2.70
2017-12-08T20:57:02.977Z,2.53
2017-12-08T20:59:30.412Z,2.90
2017-12-08T21:01:57.883Z,2.70
2017-12-08T21:04:25.320Z,3.08
2017-12-08T21:06:52.759Z,3.20
2017-12-08T21:09:20.200Z,2.20
2017-12-08T21:11:47.647Z,2.35
2017-12-08T21:14:15.093Z,2.55
2017-12-08T21:16:43.027Z,2.65
2017-12-08T21:19:10.467Z,2.33
2017-12-08T21:21:38.740Z,2.30
2017-12-08T21:24:06.166Z,1.90
2017-12-08T21:26:33.595Z,2.90
2017-12-08T21:29:01.043Z,1.80
2017-12-08T21:31:28.478Z,2.00
2017-12-08T21:33:55.916Z,2.22
2017-12-08T21:36:23.344Z,2.58
2017-12-08T21:38:50.786Z,2.15
2017-12-08T21:41:18.221Z,2.08
2017-12-08T21:43:45.663Z,1.98
2017-12-08T21:46:13.704Z,1.30
2017-12-08T21:48:41.167Z,1.62
2017-12-08T21:51:08.599Z,1.83
2017-12-08T21:53:36.027Z,1.70
2017-12-08T21:56:03.470Z,1.53
2017-12-08T21:58:30.910Z,1.83
2017-12-08T22:00:58.343Z,1.83
2017-12-08T22:03:25.776Z,1.77
2017-12-08T22:05:53.996Z,2.10
2017-12-08T22:08:21.429Z,1.80
2017-12-08T22:10:48.866Z,1.80
2017-12-08T22:13:16.291Z,1.90
2017-12-08T22:15:44.411Z,1.70
2017-12-08T22:18:12.643Z,2.00
2017-12-08T22:20:40.068Z,1.92
2017-12-08T22:23:07.503Z,1.77
2017-12-08T22:25:34.948Z,2.00
2017-12-08T22:28:03.148Z,2.17
2017-12-08T22:30:31.359Z,2.10
2017-12-08T22:32:58.851Z,1.58
2017-12-08T22:35:26.287Z,2.10
2017-12-08T22:37:53.735Z,2.00
2017-12-08T22:40:21.183Z,2.40
2017-12-08T22:42:48.615Z,2.20
2017-12-08T22:45:16.834Z,2.10
2017-12-08T22:47:45.120Z,2.12
2017-12-08T22:50:12.779Z,2.70
2017-12-08T22:52:40.208Z,2.80
2017-12-08T22:55:08.403Z,2.80
2017-12-08T22:57:35.844Z,2.80
2017-12-08T23:00:04.051Z,2.80
2017-12-08T23:02:31.501Z,3.30
2017-12-08T23:04:58.935Z,2.70
2017-12-08T23:07:26.383Z,2.90
2017-12-08T23:09:53.823Z,2.72
2017-12-08T23:12:22.025Z,2.55
2017-12-08T23:14:49.463Z,3.33
2017-12-08T23:17:16.932Z,3.35
2017-12-08T23:19:45.112Z,4.20
2017-12-08T23:22:12.619Z,3.70
2017-12-08T23:24:40.007Z,3.42
2017-12-08T23:27:07.463Z,3.20
2017-12-08T23:29:34.896Z,3.00
2017-12-08T23:32:03.097Z,3.80
2017-12-08T23:34:30.527Z,3.50
2017-12-08T23:36:57.977Z,4.80
2017-12-08T23:39:31.451Z,4.20
2017-12-08T23:41:58.903Z,3.50
2017-12-08T23:44:26.327Z,3.70
2017-12-08T23:46:54.531Z,6.67
2017-12-08T23:49:22.744Z,4.43
2017-12-08T23:51:50.187Z,6.78
2017-12-08T23:54:17.639Z,3.58
2017-12-08T23:56:45.841Z,6.18
2017-12-08T23:59:13.582Z,6.55
